Time;durP1;ratioP1;P1;durP2;ratioP2;P2;SDS_P1;SDS_P2;PMS_P1;PMS_P2;Temp;Humidity;BMP_temperature;BMP_pressure;BME280_temperature;BME280_humidity;BME280_pressure;Samples;Min_cycle;Max_cycle;Signal;HPM_P1;HPM_P2
2023/12/19 00:00:00;;;;;;;36.23;23.23;;;9.20;97.50;;;10.83;70.37;102114.50;3082681;46;20565;-72
2023/12/19 00:02:28;;;;;;;37.03;24.00;;;9.20;97.60;;;10.82;70.44;102118.94;3082380;46;20424;-70
2023/12/19 00:04:57;;;;;;;34.80;22.37;;;9.20;97.60;;;10.81;70.38;102101.50;3082385;46;20431;-71
2023/12/19 00:07:25;;;;;;;36.80;23.80;;;9.20;97.60;;;10.81;70.66;102101.50;3081983;46;20494;-72
2023/12/19 00:09:53;;;;;;;34.30;23.43;;;9.20;98.00;;;10.80;70.57;102094.56;3081560;46;20541;-71
2023/12/19 00:12:22;;;;;;;40.40;25.03;;;9.20;97.70;;;10.80;70.68;102099.81;3082680;46;20436;-70
2023/12/19 00:14:50;;;;;;;30.83;21.57;;;9.20;97.80;;;10.80;70.73;102093.72;3082347;46;20477;-71
2023/12/19 00:17:19;;;;;;;29.63;22.33;;;9.20;97.80;;;10.77;70.94;102079.03;3082141;46;20452;-72
2023/12/19 00:19:47;;;;;;;33.77;22.70;;;9.20;97.80;;;10.74;70.91;102079.31;3082073;46;20454;-71
2023/12/19 00:22:15;;;;;;;35.23;22.00;;;9.20;97.70;;;10.73;71.08;102093.47;3082464;46;20504;-71
2023/12/19 00:24:44;;;;;;;29.83;20.13;;;9.20;97.80;;;10.73;70.97;102097.91;3082094;46;20635;-71
2023/12/19 00:27:12;;;;;;;30.63;21.40;;;9.20;97.80;;;10.72;70.82;102102.31;3081930;46;20593;-70
2023/12/19 00:29:40;;;;;;;29.67;21.13;;;9.20;97.80;;;10.72;71.00;102097.06;3082511;46;20461;-70
2023/12/19 00:32:09;;;;;;;32.67;21.27;;;9.10;97.80;;;10.74;71.17;102105.63;3082647;46;20450;-72
2023/12/19 00:34:37;;;;;;;28.70;21.10;;;9.10;97.80;;;10.74;70.97;102095.09;3081937;46;20428;-71
2023/12/19 00:37:06;;;;;;;31.13;20.53;;;9.10;97.90;;;10.74;70.92;102084.56;3081952;46;20611;-72
2023/12/19 00:39:36;;;;;;;30.17;22.13;;;9.10;97.80;;;10.69;71.29;102068.41;3082129;46;20488;-72
2023/12/19 00:42:05;;;;;;;28.87;20.90;;;9.10;97.80;;;10.68;71.17;102064.09;3081482;46;21021;-72
2023/12/19 00:44:36;;;;;;;28.10;20.07;;;9.10;97.80;;;10.72;71.32;102060.19;3081754;46;20478;-72
2023/12/19 00:47:04;;;;;;;30.23;20.20;;;9.10;97.90;;;10.74;71.11;102068.78;3082644;46;20605;-70
2023/12/19 00:49:33;;;;;;;29.47;21.30;;;9.10;97.90;;;10.77;71.09;102063.22;3081621;46;20451;-71
2023/12/19 00:52:02;;;;;;;27.60;18.27;;;9.10;97.90;;;10.77;71.08;102072.94;3082063;46;20439;-70
2023/12/19 00:54:30;;;;;;;27.10;19.43;;;9.10;97.90;;;10.77;70.98;102073.75;3082096;46;20431;-70
2023/12/19 00:56:59;;;;;;;26.60;19.30;;;9.10;97.90;;;10.76;71.05;102072.13;3081937;46;20443;-72
2023/12/19 00:59:27;;;;;;;24.43;18.73;;;9.10;97.90;;;10.76;70.98;102077.38;3082212;46;20432;-70
2023/12/19 01:01:56;;;;;;;24.90;17.40;;;9.10;97.80;;;10.76;70.93;102072.13;3082407;46;20511;-72
2023/12/19 01:04:24;;;;;;;24.80;17.53;;;9.10;97.80;;;10.74;71.11;102066.13;3081851;46;20434;-72
2023/12/19 01:06:53;;;;;;;25.70;18.53;;;9.10;97.80;;;10.76;71.12;102066.03;3081606;46;20440;-71
2023/12/19 01:09:21;;;;;;;24.93;17.13;;;9.10;97.90;;;10.75;70.90;102065.19;3082253;46;20438;-73
2023/12/19 01:11:50;;;;;;;23.03;17.23;;;9.10;97.80;;;10.77;71.04;102065.03;3082008;46;20946;-72
2023/12/19 01:14:18;;;;;;;21.43;17.27;;;9.10;97.80;;;10.77;71.02;102063.22;3081959;46;20474;-72
2023/12/19 01:16:47;;;;;;;21.80;16.27;;;9.10;97.90;;;10.78;70.91;102069.34;3081427;46;20439;-70
2023/12/19 01:19:15;;;;;;;23.00;16.20;;;9.10;97.80;;;10.76;70.63;102072.13;3081995;46;20588;-71
2023/12/19 01:21:44;;;;;;;20.87;15.60;;;9.10;97.80;;;10.74;70.91;102063.50;3081133;46;20427;-72
2023/12/19 01:24:12;;;;;;;21.50;15.90;;;9.10;97.70;;;10.74;71.04;102058.25;3081460;46;20453;-71
2023/12/19 01:26:40;;;;;;;21.73;16.10;;;9.10;97.70;;;10.72;70.97;102047.03;3081610;46;20635;-70
2023/12/19 01:29:09;;;;;;;20.87;15.27;;;9.10;97.70;;;10.73;70.94;102053.97;3081938;46;20476;-72
2023/12/19 01:31:37;;;;;;;19.33;14.90;;;9.10;97.70;;;10.72;70.69;102041.75;3080812;46;20427;-72
2023/12/19 01:34:06;;;;;;;20.10;14.27;;;9.10;97.60;;;10.72;70.93;102028.59;3081766;46;20540;-75
2023/12/19 01:36:34;;;;;;;18.83;14.80;;;9.10;97.70;;;10.72;70.80;102033.06;3081376;46;20438;-69
2023/12/19 01:39:03;;;;;;;18.53;13.73;;;9.10;97.60;;;10.70;70.82;102025.28;3081978;46;21302;-71
2023/12/19 01:41:31;;;;;;;19.20;14.13;;;9.10;97.60;;;10.68;71.17;102010.59;3081093;46;20550;-72
2023/12/19 01:44:00;;;;;;;18.67;14.23;;;9.10;97.60;;;10.66;70.95;102018.66;3081173;46;20474;-72
2023/12/19 01:46:29;;;;;;;17.27;13.00;;;9.10;97.60;;;10.66;70.81;102023.91;3079839;46;20585;-71
2023/12/19 01:49:00;;;;;;;18.27;13.73;;;9.10;97.60;;;10.65;70.91;102014.34;3081027;46;20498;-71
2023/12/19 01:51:29;;;;;;;17.67;12.87;;;9.10;97.60;;;10.63;70.85;102013.66;3081832;46;20485;-71
2023/12/19 01:53:59;;;;;;;19.50;14.13;;;9.00;97.60;;;10.55;71.20;102013.56;3081521;46;20443;-72
2023/12/19 01:56:28;;;;;;;16.77;13.17;;;9.00;97.60;;;10.53;71.36;102017.31;3080974;46;20966;-72
2023/12/19 01:58:56;;;;;;;16.40;12.93;;;9.00;97.60;;;10.52;71.48;102016.47;3081762;46;21002;-71
2023/12/19 02:01:25;;;;;;;16.93;12.43;;;9.00;97.60;;;10.52;71.24;102019.09;3081469;46;20542;-72
2023/12/19 02:03:54;;;;;;;17.20;13.43;;;9.00;97.70;;;10.52;71.46;102020.91;3081434;46;21139;-71
2023/12/19 02:06:25;;;;;;;19.17;12.90;;;9.00;97.70;;;10.53;71.54;102038.38;3080388;46;21002;-75
2023/12/19 02:08:54;;;;;;;18.97;13.13;;;9.00;97.80;;;10.53;71.57;102035.75;3081642;46;21095;-71
2023/12/19 02:11:22;;;;;;;18.63;12.67;;;9.00;97.80;;;10.55;71.50;102020.63;3081267;46;20987;-72
2023/12/19 02:13:51;;;;;;;15.27;12.70;;;9.00;97.90;;;10.56;71.46;102028.38;3080482;46;20461;-70
2023/12/19 02:16:19;;;;;;;16.97;13.03;;;9.00;98.00;;;10.55;71.64;102031.16;3081459;46;20455;-68
2023/12/19 02:19:04;;;;;;;19.60;12.03;;;9.00;97.90;;;10.52;71.38;102016.47;3080622;46;20467;-69
2023/12/19 02:21:32;;;;;;;16.27;12.30;;;9.00;98.00;;;10.56;71.59;102020.47;3081054;46;21104;-72
2023/12/19 02:24:01;;;;;;;14.33;12.27;;;9.00;97.90;;;10.56;71.30;102017.84;3081087;46;20481;-70
2023/12/19 02:26:30;;;;;;;15.20;12.33;;;9.00;97.90;;;10.53;71.46;102004.97;3080502;46;20549;-71
2023/12/19 02:28:58;;;;;;;14.87;11.37;;;9.00;97.90;;;10.51;71.94;102001.63;3080146;46;20577;-71
2023/12/19 02:31:27;;;;;;;13.93;11.10;;;9.00;98.00;;;10.50;71.87;101981.56;3081339;46;21075;-71
2023/12/19 02:33:55;;;;;;;12.33;10.27;;;8.90;98.00;;;10.49;71.83;101987.78;3080616;46;20432;-72
2023/12/19 02:36:24;;;;;;;14.03;11.27;;;9.00;98.00;;;10.50;71.82;101986.84;3081012;46;20511;-72
2023/12/19 02:38:52;;;;;;;15.73;11.63;;;9.00;98.10;;;10.48;71.94;101994.06;3080826;46;20506;-71
2023/12/19 02:41:20;;;;;;;16.40;11.67;;;8.90;98.00;;;10.47;71.87;101989.75;3080363;46;20486;-70
2023/12/19 02:43:49;;;;;;;11.60;10.07;;;8.90;98.00;;;10.41;72.16;101971.88;3081252;46;21011;-72
2023/12/19 02:46:23;;;;;;;13.87;10.50;;;8.90;98.00;;;10.43;72.29;101979.66;3080830;46;20454;-72
2023/12/19 02:48:51;;;;;;;15.00;10.10;;;8.90;98.00;;;10.39;72.12;101971.19;3080078;46;20462;-70
2023/12/19 02:51:20;;;;;;;12.57;9.97;;;8.90;98.00;;;10.41;72.09;101958.72;3081474;46;20452;-70
2023/12/19 02:53:49;;;;;;;14.20;10.83;;;8.90;98.10;;;10.45;72.35;101956.66;3080848;46;20448;-72
2023/12/19 02:56:17;;;;;;;10.90;9.67;;;8.90;98.10;;;10.43;72.28;101966.50;3081003;46;21028;-69
2023/12/19 02:58:46;;;;;;;12.70;10.70;;;8.90;98.20;;;10.37;72.55;101957.34;3080429;46;21165;-71
2023/12/19 03:01:15;;;;;;;15.80;11.50;;;8.90;98.20;;;10.36;72.49;101960.13;3081240;46;20998;-71
2023/12/19 03:03:44;;;;;;;14.33;10.83;;;8.90;98.20;;;10.34;72.70;101955.00;3080782;46;21086;-71
2023/12/19 03:06:14;;;;;;;14.47;11.07;;;8.90;98.20;;;10.36;72.78;101942.56;3081104;46;20437;-71
2023/12/19 03:08:48;;;;;;;14.03;11.30;;;8.90;98.20;;;10.38;72.44;101951.13;3079888;46;20467;-72
2023/12/19 03:11:16;;;;;;;15.13;10.50;;;8.90;98.30;;;10.41;72.66;101942.13;3080643;46;21012;-71
2023/12/19 03:13:45;;;;;;;15.47;11.80;;;8.90;98.30;;;10.45;72.55;101927.69;3081015;46;20451;-70
2023/12/19 03:16:13;;;;;;;15.47;11.53;;;8.90;98.30;;;10.46;72.41;101917.00;3080406;46;20450;-72
2023/12/19 03:18:42;;;;;;;13.77;12.17;;;8.90;98.30;;;10.47;72.43;101910.78;3080047;46;20464;-72
2023/12/19 03:21:10;;;;;;;15.03;12.30;;;8.90;98.30;;;10.49;72.44;101927.25;3080757;46;20467;-71
2023/12/19 03:23:39;;;;;;;16.33;12.30;;;8.90;98.30;;;10.51;72.08;101924.47;3080789;46;20437;-71
2023/12/19 03:26:07;;;;;;;16.73;12.83;;;8.90;98.30;;;10.54;72.01;101925.03;3080777;46;20458;-71
2023/12/19 03:28:37;;;;;;;18.60;13.30;;;8.90;98.30;;;10.56;72.19;101923.06;3080251;46;20605;-70
2023/12/19 03:31:05;;;;;;;18.93;14.13;;;8.90;98.40;;;10.54;72.07;101919.75;3080160;46;20544;-71
2023/12/19 03:33:34;;;;;;;16.83;13.33;;;8.90;98.30;;;10.55;72.03;101918.81;3080913;46;20431;-71
2023/12/19 03:36:03;;;;;;;16.67;13.67;;;8.90;98.30;;;10.52;72.32;101921.72;3080415;46;20489;-71
2023/12/19 03:38:31;;;;;;;17.70;13.80;;;8.90;98.20;;;10.52;72.24;101910.34;3079892;46;20460;-72
2023/12/19 03:41:00;;;;;;;18.47;13.43;;;8.90;98.20;;;10.52;72.20;101911.19;3079845;46;20489;-72
2023/12/19 03:43:28;;;;;;;18.47;14.10;;;8.90;98.30;;;10.53;72.07;101907.56;3080514;46;20470;-72
2023/12/19 03:46:01;;;;;;;17.17;13.90;;;8.90;98.30;;;10.48;72.25;101909.00;3082093;46;21166;-70
2023/12/19 03:48:29;;;;;;;19.30;13.70;;;8.90;98.20;;;10.46;72.21;101901.22;3081852;46;20446;-70
2023/12/19 03:50:58;;;;;;;20.40;13.13;;;8.90;98.20;;;10.41;72.45;101898.19;3082836;46;20460;-70
2023/12/19 03:53:27;;;;;;;18.83;14.10;;;8.90;98.20;;;10.41;72.70;101897.38;3082837;46;20513;-71
2023/12/19 03:55:56;;;;;;;19.17;13.97;;;8.90;98.30;;;10.42;72.56;101899.88;3082168;46;20424;-69
2023/12/19 03:58:24;;;;;;;16.77;13.40;;;8.90;98.30;;;10.45;72.52;101890.84;3081946;46;20439;-71
2023/12/19 04:00:53;;;;;;;16.00;12.80;;;8.90;98.30;;;10.47;72.57;101888.91;3082899;46;20452;-72
2023/12/19 04:03:21;;;;;;;15.03;12.73;;;8.90;98.30;;;10.44;72.55;101871.59;3083250;46;20446;-71
2023/12/19 04:05:50;;;;;;;17.00;12.80;;;8.90;98.30;;;10.42;72.68;101868.28;3082417;46;20506;-72
2023/12/19 04:08:18;;;;;;;16.90;13.20;;;8.90;98.30;;;10.42;72.76;101860.38;3082180;46;20446;-71
2023/12/19 04:10:46;;;;;;;15.67;12.47;;;8.90;98.30;;;10.37;72.81;101857.34;3082715;46;20448;-71
2023/12/19 04:13:15;;;;;;;14.73;12.07;;;8.90;98.20;;;10.34;72.70;101864.72;3082416;46;20427;-71
2023/12/19 04:15:43;;;;;;;13.40;10.30;;;8.90;98.20;;;10.34;72.65;101865.53;3082453;46;20427;-71
2023/12/19 04:18:14;;;;;;;12.80;10.27;;;8.90;98.20;;;10.34;72.80;101857.63;3082111;46;20480;-69
2023/12/19 04:20:42;;;;;;;14.13;10.80;;;8.80;98.20;;;10.36;72.52;101853.09;3082782;46;20484;-71
2023/12/19 04:23:12;;;;;;;12.57;10.57;;;8.80;98.20;;;10.33;72.56;101842.84;3082505;46;20452;-71
2023/12/19 04:25:40;;;;;;;10.77;9.53;;;8.80;98.10;;;10.32;72.43;101851.69;3082524;46;21068;-71
2023/12/19 04:28:09;;;;;;;11.23;9.17;;;8.80;98.10;;;10.32;72.35;101837.75;3082232;46;21024;-72
2023/12/19 04:30:37;;;;;;;10.80;9.07;;;8.80;98.20;;;10.33;72.39;101845.47;3082743;46;20560;-69
2023/12/19 04:33:05;;;;;;;8.63;7.73;;;8.80;98.20;;;10.30;72.29;101843.13;3082489;46;21120;-71
2023/12/19 04:35:34;;;;;;;9.17;7.63;;;8.80;98.10;;;10.22;72.52;101826.41;3082194;46;20462;-72
2023/12/19 04:38:03;;;;;;;9.83;8.07;;;8.80;98.10;;;10.20;72.88;101829.19;3081984;46;20453;-71
2023/12/19 04:40:32;;;;;;;8.03;7.23;;;8.80;98.10;;;10.17;72.59;101826.84;3082748;46;20463;-72
2023/12/19 04:43:01;;;;;;;8.70;6.27;;;8.70;98.10;;;10.17;72.57;101832.13;3081776;46;20432;-71
2023/12/19 04:45:29;;;;;;;7.73;6.73;;;8.70;98.10;;;10.13;73.04;101820.22;3082711;46;20427;-72
2023/12/19 04:47:58;;;;;;;7.53;6.70;;;8.70;98.10;;;10.15;72.69;101820.88;3082312;46;20450;-70
2023/12/19 04:50:26;;;;;;;7.00;6.30;;;8.70;98.20;;;10.17;72.77;101825.03;3082069;46;20431;-71
2023/12/19 04:52:56;;;;;;;6.13;5.53;;;8.70;98.20;;;10.19;72.85;101819.66;3082004;46;20423;-72
2023/12/19 04:55:24;;;;;;;6.10;5.50;;;8.70;98.30;;;10.20;72.86;101810.75;3082207;46;20500;-72
2023/12/19 04:57:52;;;;;;;5.80;5.23;;;8.70;98.30;;;10.20;72.66;101805.50;3082178;46;20533;-70
2023/12/19 05:00:21;;;;;;;5.97;5.37;;;8.60;98.20;;;10.18;72.54;101796.94;3082282;46;21006;-71
2023/12/19 05:02:49;;;;;;;6.43;5.40;;;8.60;98.20;;;10.14;72.78;101790.31;3082115;46;20563;-72
2023/12/19 05:05:18;;;;;;;6.00;5.40;;;8.70;98.20;;;10.13;72.80;101778.13;3082050;46;20441;-72
2023/12/19 05:07:46;;;;;;;6.77;5.73;;;8.70;98.20;;;10.16;72.59;101772.56;3081939;46;20545;-70
2023/12/19 05:10:15;;;;;;;5.33;4.83;;;8.60;98.20;;;10.10;72.78;101765.25;3081917;46;20453;-71
2023/12/19 05:12:43;;;;;;;5.53;4.93;;;8.60;98.20;;;10.12;72.96;101781.75;3081711;46;20510;-72
2023/12/19 05:15:12;;;;;;;5.63;4.67;;;8.70;98.20;;;10.16;73.00;101793.63;3082051;46;21013;-71
2023/12/19 05:17:40;;;;;;;4.83;4.33;;;8.70;98.20;;;10.18;72.87;101792.50;3081387;46;20444;-71
2023/12/19 05:20:13;;;;;;;5.17;4.63;;;8.70;98.20;;;10.21;72.57;101783.50;3082207;46;20438;-70
2023/12/19 05:22:42;;;;;;;4.97;4.13;;;8.60;98.20;;;10.24;72.58;101782.38;3081891;46;21129;-70
2023/12/19 05:25:10;;;;;;;4.87;4.47;;;8.70;98.30;;;10.27;72.54;101789.97;3081606;46;21045;-72
2023/12/19 05:27:43;;;;;;;5.23;4.40;;;8.70;98.30;;;10.28;72.43;101784.56;3081454;46;20440;-72
2023/12/19 05:30:12;;;;;;;5.33;4.83;;;8.70;98.20;;;10.28;72.40;101779.31;3081804;46;20432;-72
2023/12/19 05:32:41;;;;;;;4.73;4.27;;;8.70;98.20;;;10.28;72.30;101783.72;3081967;46;20428;-71
2023/12/19 05:35:10;;;;;;;4.60;4.20;;;8.70;98.10;;;10.29;72.41;101780.97;3081774;46;21037;-70
2023/12/19 05:37:38;;;;;;;4.47;4.07;;;8.70;98.10;;;10.31;72.04;101775.56;3081486;46;20472;-70
2023/12/19 05:40:08;;;;;;;5.00;4.50;;;8.70;98.10;;;10.33;72.18;101777.06;3081486;46;20469;-71
2023/12/19 05:42:36;;;;;;;5.23;4.73;;;8.70;98.10;;;10.33;72.02;101771.78;3081001;46;20518;-68
2023/12/19 05:45:07;;;;;;;5.37;4.53;;;8.70;98.20;;;10.30;72.16;101779.97;3082146;46;20428;-72
2023/12/19 05:47:36;;;;;;;4.63;4.23;;;8.70;98.10;;;10.32;72.42;101783.28;3080965;46;21016;-70
2023/12/19 05:50:05;;;;;;;4.33;3.93;;;8.70;98.20;;;10.35;72.24;101771.63;3081152;46;20525;-71
2023/12/19 05:52:33;;;;;;;5.10;4.60;;;8.80;98.30;;;10.33;72.42;101777.06;3081692;46;20424;-69
2023/12/19 05:55:02;;;;;;;4.77;4.13;;;8.80;98.30;;;10.34;72.29;101775.25;3081032;46;20478;-72
2023/12/19 05:57:31;;;;;;;4.00;3.63;;;8.80;98.30;;;10.31;72.20;101773.75;3080921;46;20517;-71
2023/12/19 06:00:00;;;;;;;4.23;3.93;;;8.70;98.20;;;10.32;72.51;101778.03;3081657;46;20537;-72
2023/12/19 06:02:28;;;;;;;4.23;3.70;;;8.80;98.30;;;10.33;72.39;101777.06;3081332;46;20448;-71
2023/12/19 06:05:07;;;;;;;3.87;3.57;;;8.80;98.30;;;10.30;72.33;101774.72;3081409;46;20438;-71
2023/12/19 06:07:37;;;;;;;3.17;2.90;;;8.70;98.20;;;10.30;71.97;101776.50;3080178;46;20439;-72
2023/12/19 06:10:11;;;;;;;4.17;3.77;;;8.70;98.30;;;10.29;72.48;101777.50;3080209;46;20447;-71
2023/12/19 06:12:40;;;;;;;3.97;3.43;;;8.70;98.20;;;10.29;72.50;101773.06;3080736;46;20435;-71
2023/12/19 06:15:13;;;;;;;3.83;3.43;;;8.70;98.30;;;10.29;72.28;101772.25;3081397;46;21080;-71
2023/12/19 06:17:43;;;;;;;3.87;3.50;;;8.80;98.30;;;10.26;72.46;101770.72;3080870;46;20439;-71
2023/12/19 06:20:12;;;;;;;3.13;2.80;;;8.70;98.30;;;10.20;72.66;101766.03;3081124;46;21115;-73
2023/12/19 06:22:43;;;;;;;3.90;3.17;;;8.70;98.20;;;10.20;72.80;101769.50;3081655;46;20451;-72
2023/12/19 06:25:12;;;;;;;3.27;2.97;;;8.70;98.30;;;10.21;72.73;101772.97;3081315;46;20512;-72
2023/12/19 06:27:42;;;;;;;3.73;2.67;;;8.70;98.30;;;10.22;72.72;101769.38;3080735;46;20716;-72
2023/12/19 06:30:12;;;;;;;3.30;3.00;;;8.70;98.40;;;10.20;72.83;101764.25;3081355;46;21295;-74
2023/12/19 06:32:53;;;;;;;3.57;3.27;;;8.70;98.40;;;10.14;72.81;101770.09;3081290;46;20465;-72
2023/12/19 06:35:23;;;;;;;2.93;2.73;;;8.70;98.30;;;10.09;72.92;101767.06;3081044;46;20518;-70
2023/12/19 06:37:51;;;;;;;3.03;2.77;;;8.70;98.30;;;10.10;72.92;101765.25;3080679;46;20591;-71
2023/12/19 06:40:20;;;;;;;3.23;2.93;;;8.70;98.40;;;10.10;73.04;101762.63;3080682;46;20434;-70
2023/12/19 06:42:49;;;;;;;10.83;9.73;;;8.60;98.40;;;10.12;72.97;101766.78;3080655;46;20434;-71
2023/12/19 06:45:18;;;;;;;12.23;10.93;;;8.60;98.40;;;10.11;73.15;101769.53;3081123;46;20432;-72
2023/12/19 06:47:47;;;;;;;8.50;7.70;;;8.60;98.50;;;10.06;73.27;101763.88;3080820;46;21043;-72
2023/12/19 06:50:16;;;;;;;8.27;6.73;;;8.60;98.50;;;10.06;73.33;101766.50;3080701;46;20452;-71
2023/12/19 06:52:45;;;;;;;10.00;5.17;;;8.60;98.50;;;10.04;73.33;101764.03;3080698;46;22183;-71
2023/12/19 06:55:14;;;;;;;4.90;3.63;;;8.60;98.50;;;10.03;73.22;101751.03;3080394;43;21107;-71
2023/12/19 06:57:42;;;;;;;3.97;3.37;;;8.60;98.50;;;10.03;73.34;101740.50;3080033;46;20542;-71
2023/12/19 07:00:12;;;;;;;3.87;2.97;;;8.60;98.50;;;10.02;73.33;101737.03;3080512;46;20437;-71
2023/12/19 07:02:41;;;;;;;2.97;2.67;;;8.50;98.50;;;9.99;73.31;101734.69;3081580;46;20548;-72
2023/12/19 07:05:10;;;;;;;6.03;3.20;;;8.50;98.50;;;10.00;73.39;101731.09;3080637;46;20432;-72
2023/12/19 07:07:38;;;;;;;3.33;2.97;;;8.50;98.60;;;10.01;73.49;101729.28;3080007;43;20459;-72
2023/12/19 07:10:07;;;;;;;3.70;3.40;;;8.50;98.60;;;10.00;73.69;101725.00;3080829;46;20426;-72
2023/12/19 07:12:38;;;;;;;3.30;2.60;;;8.50;98.60;;;9.99;73.57;101718.09;3080439;46;20439;-72
2023/12/19 07:15:08;;;;;;;7.23;3.27;;;8.50;98.60;;;10.00;73.55;101694.28;3080885;46;20567;-72
2023/12/19 07:17:37;;;;;;;6.03;3.80;;;8.50;98.60;;;10.04;73.51;101697.44;3079954;46;21350;-71
2023/12/19 07:20:07;;;;;;;7.77;4.10;;;8.50;98.70;;;10.06;73.41;101698.13;3081409;46;20959;-71
2023/12/19 07:22:36;;;;;;;3.13;2.70;;;8.50;98.70;;;10.03;73.65;101693.16;3083315;46;20427;-72
2023/12/19 07:25:05;;;;;;;6.80;3.80;;;8.60;98.70;;;10.05;73.56;101683.31;3082401;46;20471;-72
2023/12/19 07:27:34;;;;;;;5.40;3.20;;;8.60;98.70;;;10.06;73.56;101683.16;3082297;46;20458;-72
2023/12/19 07:30:06;;;;;;;3.07;2.63;;;8.60;98.70;;;10.06;73.61;101687.59;3083028;46;21083;-72
2023/12/19 07:32:35;;;;;;;4.40;3.20;;;8.60;98.70;;;10.09;73.72;101684.69;3083213;46;20438;-70
2023/12/19 07:35:06;;;;;;;4.10;3.17;;;8.60;98.80;;;10.12;73.28;101693.16;3083355;46;20434;-72
2023/12/19 07:37:34;;;;;;;4.33;3.17;;;8.60;98.80;;;10.09;73.69;101677.63;3082319;46;20438;-72
2023/12/19 07:40:05;;;;;;;7.80;3.60;;;8.60;98.70;;;10.12;73.46;101672.09;3081624;46;20499;-72
2023/12/19 07:42:34;;;;;;;3.53;3.23;;;8.60;98.70;;;10.14;73.40;101675.41;3081785;46;20461;-71
2023/12/19 07:45:04;;;;;;;3.37;2.40;;;8.60;98.70;;;10.13;73.32;101667.66;3082904;46;21024;-69
2023/12/19 07:47:34;;;;;;;2.87;2.67;;;8.60;98.70;;;10.07;73.61;101662.97;3081773;46;20454;-70
2023/12/19 07:50:05;;;;;;;14.73;5.73;;;8.60;98.70;;;10.07;73.76;101658.53;3082411;46;20427;-71
2023/12/19 07:52:34;;;;;;;10.27;4.67;;;8.60;98.70;;;10.09;73.92;101658.38;3082858;46;21009;-71
2023/12/19 07:55:04;;;;;;;5.07;3.17;;;8.60;98.70;;;10.08;73.77;101654.06;3082708;46;20462;-72
2023/12/19 07:57:32;;;;;;;4.33;3.10;;;8.60;98.70;;;10.07;73.93;101655.91;3082052;43;20487;-72
2023/12/19 08:00:01;;;;;;;6.10;3.03;;;8.60;98.70;;;10.08;73.96;101660.16;3083043;46;20434;-71
2023/12/19 08:02:32;;;;;;;8.90;4.07;;;8.60;98.70;;;10.12;73.87;101660.75;3081748;46;20463;-72
2023/12/19 08:05:01;;;;;;;7.13;4.27;;;8.60;98.70;;;10.06;73.85;101653.41;3082733;46;20446;-72
2023/12/19 08:07:29;;;;;;;3.83;2.83;;;8.60;98.80;;;9.98;74.23;101646.25;3081488;46;21016;-71
2023/12/19 08:09:57;;;;;;;8.30;3.77;;;8.60;98.70;;;10.00;74.43;101646.13;3082165;46;20428;-71
2023/12/19 08:12:27;;;;;;;28.87;8.80;;;8.60;98.80;;;10.02;74.30;101645.00;3081856;46;21450;-70
2023/12/19 08:14:55;;;;;;;13.63;7.00;;;8.60;98.80;;;10.08;74.17;101643.56;3081718;46;20541;-71
2023/12/19 08:17:24;;;;;;;13.13;4.73;;;8.60;98.90;;;10.13;74.22;101642.19;3081169;46;20440;-72
2023/12/19 08:19:52;;;;;;;8.30;3.70;;;8.60;98.90;;;10.17;73.99;101642.72;3082081;46;20500;-71
2023/12/19 08:22:21;;;;;;;9.87;4.07;;;8.60;98.90;;;10.13;73.95;101636.91;3082735;46;20551;-69
2023/12/19 08:24:50;;;;;;;6.03;3.30;;;8.70;99.00;;;10.17;74.05;101642.72;3082449;46;20423;-71
2023/12/19 08:27:22;;;;;;;12.77;4.03;;;8.60;98.90;;;10.21;73.95;101646.69;3081298;46;20440;-72
2023/12/19 08:29:51;;;;;;;5.60;3.40;;;8.70;99.00;;;10.21;73.72;101644.06;3082357;46;20456;-72
2023/12/19 08:32:19;;;;;;;7.03;3.90;;;8.70;99.00;;;10.26;74.09;101647.06;3081752;46;20438;-70
2023/12/19 08:34:47;;;;;;;5.63;3.10;;;8.70;99.10;;;10.25;74.15;101640.16;3082104;43;20427;-72
2023/12/19 08:37:16;;;;;;;3.87;2.67;;;8.70;99.10;;;10.26;73.73;101636.56;3080906;46;20479;-72
2023/12/19 08:39:45;;;;;;;7.43;3.50;;;8.70;99.00;;;10.26;73.88;101635.72;3081977;46;20431;-70
2023/12/19 08:42:13;;;;;;;6.30;3.00;;;8.70;99.00;;;10.25;73.68;101629.63;3081212;46;20453;-71
2023/12/19 08:44:41;;;;;;;5.30;3.43;;;8.70;99.00;;;10.25;73.71;101634.88;3082327;46;20429;-72
2023/12/19 08:47:10;;;;;;;7.57;4.10;;;8.70;98.90;;;10.28;73.95;101628.50;3081320;46;20490;-70
2023/12/19 08:49:43;;;;;;;10.27;4.70;;;8.70;99.00;;;10.27;73.81;101625.03;3080752;46;21062;-71
2023/12/19 08:52:12;;;;;;;7.20;3.97;;;8.70;99.10;;;10.28;73.94;101618.81;3081509;46;20504;-69
2023/12/19 08:54:41;;;;;;;5.47;3.43;;;8.70;99.10;;;10.30;73.83;101622.13;3081800;46;20573;-71
2023/12/19 08:57:09;;;;;;;3.13;2.83;;;8.70;99.10;;;10.22;74.17;101624.69;3080958;46;20462;-72
2023/12/19 08:59:38;;;;;;;5.93;4.20;;;8.70;98.90;;;10.20;74.27;101616.94;3082099;46;20423;-70
2023/12/19 09:02:07;;;;;;;4.00;2.93;;;8.70;99.00;;;10.20;74.10;101621.34;3081931;46;20466;-70
2023/12/19 09:04:35;;;;;;;3.10;2.80;;;8.70;99.00;;;10.20;74.22;101616.09;3082026;46;20513;-72
2023/12/19 09:07:04;;;;;;;5.23;3.30;;;8.70;99.00;;;10.22;74.27;101616.78;3081385;46;20459;-72
2023/12/19 09:09:32;;;;;;;7.37;3.97;;;8.70;99.00;;;10.26;74.23;101612.88;3082228;46;20432;-72
2023/12/19 09:12:01;;;;;;;7.50;3.87;;;8.70;99.10;;;10.28;74.09;101613.53;3081252;46;20498;-70
2023/12/19 09:14:29;;;;;;;7.27;5.53;;;8.70;99.10;;;10.31;74.02;101597.47;3081470;46;20451;-73
2023/12/19 09:16:57;;;;;;;4.07;3.00;;;8.70;99.10;;;10.28;74.35;101605.66;3081243;46;20966;-72
2023/12/19 09:19:26;;;;;;;6.63;4.53;;;8.80;99.20;;;10.31;74.36;101605.38;3081713;46;20479;-73
2023/12/19 09:21:55;;;;;;;5.47;3.63;;;8.80;99.20;;;10.35;74.44;101598.81;3081246;46;20549;-72
2023/12/19 09:24:23;;;;;;;3.50;3.20;;;8.80;99.20;;;10.37;74.20;101601.28;3081630;46;20456;-71
2023/12/19 09:26:52;;;;;;;5.60;3.50;;;8.80;99.20;;;10.40;74.07;101601.81;3081636;46;20517;-73
2023/12/19 09:29:22;;;;;;;5.40;3.27;;;8.80;99.20;;;10.43;74.03;101601.53;3081851;46;20460;-71
2023/12/19 09:31:51;;;;;;;3.80;3.10;;;8.90;99.20;;;10.47;73.90;101602.84;3081557;46;20438;-72
2023/12/19 09:34:20;;;;;;;4.17;3.70;;;8.80;99.20;;;10.48;73.78;101601.88;3081758;46;20431;-72
2023/12/19 09:36:50;;;;;;;3.23;2.93;;;8.90;99.20;;;10.51;73.92;101598.94;3081010;46;20525;-72
2023/12/19 09:39:24;;;;;;;3.97;3.30;;;8.90;99.20;;;10.54;73.87;101593.38;3081288;46;20431;-73
2023/12/19 09:41:53;;;;;;;5.00;3.17;;;8.90;99.20;;;10.58;74.00;101588.59;3080196;46;20427;-71
2023/12/19 09:44:21;;;;;;;9.03;4.30;;;8.90;99.20;;;10.60;73.80;101587.47;3081009;46;20509;-73
2023/12/19 09:46:53;;;;;;;7.00;3.70;;;8.90;99.50;;;10.63;73.86;101595.06;3081354;46;20528;-72
2023/12/19 09:49:28;;;;;;;6.10;3.43;;;9.00;99.30;;;10.62;73.69;101584.72;3081291;46;20521;-72
2023/12/19 09:52:00;;;;;;;5.30;3.70;;;9.00;99.20;;;10.65;73.79;101587.03;3081246;46;20423;-71
2023/12/19 09:54:29;;;;;;;6.87;4.43;;;9.00;99.30;;;10.69;73.82;101577.84;3081148;46;21024;-72
2023/12/19 09:56:59;;;;;;;12.17;5.40;;;9.00;99.30;;;10.73;73.91;101571.28;3080457;46;20656;-73
2023/12/19 09:59:28;;;;;;;7.83;4.13;;;9.10;99.30;;;10.73;73.63;101563.38;3079356;46;20442;-72
2023/12/19 10:01:56;;;;;;;12.00;4.80;;;9.10;99.30;;;10.75;73.78;101554.34;3081458;46;20440;-70
2023/12/19 10:04:25;;;;;;;7.80;3.80;;;9.10;99.20;;;10.77;73.74;101552.38;3081525;46;20439;-73
2023/12/19 10:06:57;;;;;;;12.20;5.20;;;9.10;99.20;;;10.76;73.77;101545.47;3080433;46;20516;-70
2023/12/19 10:09:26;;;;;;;9.77;5.17;;;9.20;99.20;;;10.80;73.83;101551.25;3080391;46;20427;-72
2023/12/19 10:12:12;;;;;;;11.80;4.67;;;9.20;99.20;;;10.80;73.65;101546.81;3081099;46;20481;-72
2023/12/19 10:14:40;;;;;;;5.87;3.77;;;9.20;99.20;;;10.82;73.64;101536.94;3080682;46;20999;-72
2023/12/19 10:17:15;;;;;;;8.97;4.13;;;9.20;99.20;;;10.82;73.77;101539.59;3081471;46;20546;-73
2023/12/19 10:19:45;;;;;;;4.10;3.47;;;9.20;99.20;;;10.83;73.71;101538.63;3081091;46;20427;-71